Time;durP1;ratioP1;P1;durP2;ratioP2;P2;SDS_P1;SDS_P2;PMS_P1;PMS_P2;Temp;Humidity;BMP_temperature;BMP_pressure;BME280_temperature;BME280_humidity;BME280_pressure;Samples;Min_cycle;Max_cycle;Signal;HPM_P1;HPM_P2
2022/04/25 00:01:30;;;;;;;10.90;8.00;;;15.30;71.50;;;;;;5076732;28;20048;-62
2022/04/25 00:03:56;;;;;;;11.60;8.40;;;15.20;71.30;;;;;;5076519;28;20020;-62
2022/04/25 00:06:22;;;;;;;10.15;8.45;;;15.20;72.00;;;;;;5076725;28;20154;-62
2022/04/25 00:08:48;;;;;;;10.30;8.63;;;15.20;72.00;;;;;;5076519;28;20468;-62
2022/04/25 00:11:14;;;;;;;11.93;8.35;;;15.20;71.60;;;;;;5076197;28;20171;-62
2022/04/25 00:13:40;;;;;;;10.48;7.70;;;15.20;71.60;;;;;;5075705;28;20071;-62
2022/04/25 00:16:05;;;;;;;10.10;7.65;;;15.20;72.40;;;;;;5076796;28;20032;-62
2022/04/25 00:18:31;;;;;;;11.80;7.60;;;15.20;73.80;;;;;;5076585;28;20036;-62
2022/04/25 00:20:57;;;;;;;10.75;7.00;;;15.20;72.80;;;;;;5076333;28;20100;-62
2022/04/25 00:23:24;;;;;;;10.82;7.78;;;15.20;72.70;;;;;;5076495;28;20047;-62
2022/04/25 00:25:50;;;;;;;10.40;7.65;;;15.20;73.10;;;;;;5076273;28;20031;-62
2022/04/25 00:28:16;;;;;;;12.18;7.93;;;15.20;72.10;;;;;;5067659;28;230595;-62
2022/04/25 00:30:41;;;;;;;11.30;8.57;;;15.20;71.90;;;;;;5076820;28;20029;-62
2022/04/25 00:33:07;;;;;;;12.52;7.97;;;15.20;70.80;;;;;;5077296;28;20039;-62
2022/04/25 00:35:33;;;;;;;10.57;8.27;;;15.20;70.60;;;;;;5077095;28;20060;-62
2022/04/25 00:37:58;;;;;;;10.90;8.10;;;15.10;71.00;;;;;;5077425;28;20033;-62
2022/04/25 00:40:25;;;;;;;12.82;8.55;;;15.10;71.20;;;;;;5077251;28;20048;-62
2022/04/25 00:42:52;;;;;;;11.38;7.82;;;15.00;71.40;;;;;;5076914;28;20040;-62
2022/04/25 00:45:18;;;;;;;10.80;7.93;;;14.90;72.50;;;;;;5077002;28;20012;-62
2022/04/25 00:47:45;;;;;;;11.80;8.02;;;15.00;71.80;;;;;;5076983;28;20024;-62
2022/04/25 00:50:13;;;;;;;10.27;6.80;;;15.00;72.50;;;;;;5076977;28;20024;-62
2022/04/25 00:52:40;;;;;;;11.07;8.60;;;15.00;73.10;;;;;;5076744;28;20265;-62
2022/04/25 00:55:08;;;;;;;11.68;8.82;;;15.00;72.00;;;;;;5077141;28;20033;-62
2022/04/25 00:57:35;;;;;;;10.60;6.95;;;15.00;72.80;;;;;;5076753;28;20051;-62
2022/04/25 01:00:05;;;;;;;9.85;7.28;;;14.90;72.90;;;;;;5076881;28;20377;-62
2022/04/25 01:02:30;;;;;;;11.90;8.30;;;14.90;73.10;;;;;;5076845;28;20112;-62
2022/04/25 01:04:57;;;;;;;12.23;8.30;;;14.90;73.70;;;;;;5076767;28;20040;-62
2022/04/25 01:07:23;;;;;;;10.15;7.97;;;14.90;73.30;;;;;;5077071;28;20434;-62
2022/04/25 01:09:49;;;;;;;9.63;7.32;;;14.90;73.50;;;;;;5076793;28;20012;-62
2022/04/25 01:12:15;;;;;;;11.10;7.88;;;14.80;73.80;;;;;;5076902;28;20029;-62
2022/04/25 01:14:40;;;;;;;10.90;8.02;;;14.70;74.30;;;;;;5076809;28;20061;-62
2022/04/25 01:17:07;;;;;;;9.68;7.13;;;14.70;74.10;;;;;;5076668;28;20028;-62
2022/04/25 01:19:33;;;;;;;11.73;7.68;;;14.70;74.30;;;;;;5076460;28;20119;-62
2022/04/25 01:22:12;;;;;;;10.93;7.47;;;14.70;73.90;;;;;;5076584;28;20050;-62
2022/04/25 01:27:22;;;;;;;13.80;9.15;;;14.70;75.60;;;;;;5080253;28;20241;-62
2022/04/25 01:29:52;;;;;;;12.77;9.50;;;14.80;73.60;;;;;;5080359;28;20056;-62
2022/04/25 01:32:20;;;;;;;13.32;8.85;;;14.80;72.40;;;;;;5080125;28;20534;-62
2022/04/25 01:34:46;;;;;;;13.70;8.50;;;14.80;73.00;;;;;;5080071;28;20396;-62
2022/04/25 01:37:15;;;;;;;11.80;8.60;;;14.70;74.00;;;;;;5080191;28;20104;-62
2022/04/25 01:39:52;;;;;;;10.45;8.35;;;14.70;72.50;;;;;;5079929;28;20024;-62
2022/04/25 01:42:20;;;;;;;10.60;7.70;;;14.70;73.60;;;;;;5079809;28;20029;-62
2022/04/25 01:44:46;;;;;;;13.20;8.75;;;14.70;73.40;;;;;;5079843;28;20461;-62
2022/04/25 01:47:12;;;;;;;10.00;8.45;;;14.60;72.70;;;;;;5079844;28;20085;-62
2022/04/25 01:49:38;;;;;;;10.02;7.60;;;14.60;74.30;;;;;;5079781;28;20024;-62
2022/04/25 01:52:06;;;;;;;11.55;7.57;;;14.60;74.50;;;;;;5079838;28;20028;-62
2022/04/25 01:54:32;;;;;;;12.35;7.53;;;14.60;75.10;;;;;;5079733;28;20032;-62
2022/04/25 01:57:00;;;;;;;13.77;8.80;;;14.70;75.60;;;;;;5079629;28;20017;-62
2022/04/25 01:59:27;;;;;;;11.90;8.60;;;14.70;74.20;;;;;;5079540;28;20111;-62
2022/04/25 02:01:52;;;;;;;10.85;8.15;;;14.60;74.40;;;;;;5079524;28;20103;-62
2022/04/25 02:04:21;;;;;;;12.10;8.48;;;14.60;75.00;;;;;;5079703;28;20067;-62
2022/04/25 02:06:48;;;;;;;11.52;8.75;;;14.60;72.80;;;;;;5079566;28;20016;-62
2022/04/25 02:09:14;;;;;;;12.82;8.88;;;14.50;73.60;;;;;;5079383;28;20020;-62
2022/04/25 02:11:40;;;;;;;10.95;8.85;;;14.50;73.40;;;;;;5079453;28;20538;-62
2022/04/25 02:14:06;;;;;;;11.00;8.65;;;14.40;74.50;;;;;;5079340;28;20170;-62
2022/04/25 02:16:32;;;;;;;11.93;8.43;;;14.40;75.10;;;;;;5079435;28;20028;-62
2022/04/25 02:18:59;;;;;;;11.15;8.80;;;14.40;74.00;;;;;;5079229;28;20025;-62
2022/04/25 02:21:25;;;;;;;11.48;8.80;;;14.40;74.70;;;;;;5078910;28;20025;-62
2022/04/25 02:23:51;;;;;;;12.32;8.35;;;14.40;74.40;;;;;;5079329;28;20021;-62
2022/04/25 02:26:17;;;;;;;13.23;9.15;;;14.40;75.20;;;;;;5078938;28;20021;-62
2022/04/25 02:28:42;;;;;;;11.00;8.63;;;14.30;74.40;;;;;;5078885;28;20468;-62
2022/04/25 02:31:08;;;;;;;13.85;9.85;;;14.30;75.70;;;;;;5079009;28;20017;-62
2022/04/25 02:33:35;;;;;;;13.00;9.40;;;14.30;73.30;;;;;;5079125;28;20025;-62
2022/04/25 02:36:04;;;;;;;11.88;9.50;;;14.30;73.30;;;;;;5078774;28;20051;-62
2022/04/25 02:38:35;;;;;;;12.48;9.18;;;14.30;74.70;;;;;;5078635;28;20051;-62
2022/04/25 02:41:06;;;;;;;15.65;9.30;;;14.30;73.00;;;;;;5079177;28;20024;-62
2022/04/25 02:43:40;;;;;;;12.90;9.52;;;14.20;73.00;;;;;;5078659;28;20108;-62
2022/04/25 02:46:08;;;;;;;10.85;7.93;;;14.10;74.00;;;;;;5078933;28;20071;-62
2022/04/25 02:48:35;;;;;;;12.48;8.80;;;14.00;73.80;;;;;;5078807;28;20036;-62
2022/04/25 02:51:03;;;;;;;12.63;10.07;;;14.00;73.90;;;;;;5078797;28;20020;-62
2022/04/25 02:53:29;;;;;;;11.68;8.50;;;14.00;73.60;;;;;;5078521;28;20484;-62
2022/04/25 02:55:55;;;;;;;13.27;9.90;;;14.00;74.10;;;;;;5078470;28;20080;-62
2022/04/25 02:58:21;;;;;;;14.15;10.00;;;13.90;74.00;;;;;;5078477;28;20521;-62
2022/04/25 03:00:48;;;;;;;12.75;9.82;;;13.90;74.50;;;;;;5078270;28;20119;-62
2022/04/25 03:03:15;;;;;;;13.32;10.70;;;13.90;74.90;;;;;;5078485;28;20028;-62
2022/04/25 03:05:43;;;;;;;12.85;9.57;;;13.90;74.50;;;;;;5078258;28;20028;-62
2022/04/25 03:08:11;;;;;;;13.95;10.30;;;13.90;76.30;;;;;;5078537;28;20148;-62
2022/04/25 03:10:37;;;;;;;13.18;9.90;;;13.90;75.60;;;;;;5078202;28;20024;-62
2022/04/25 03:13:07;;;;;;;13.88;10.57;;;13.90;75.10;;;;;;5078055;28;20365;-62
2022/04/25 03:15:34;;;;;;;14.85;10.75;;;13.90;74.40;;;;;;5078280;28;20098;-62
2022/04/25 03:18:01;;;;;;;13.82;9.82;;;13.90;76.10;;;;;;5078028;28;20391;-62
2022/04/25 03:20:31;;;;;;;12.98;9.07;;;13.90;76.30;;;;;;5078250;28;20033;-62
2022/04/25 03:22:58;;;;;;;13.75;9.70;;;13.80;75.90;;;;;;5077834;28;20476;-62
2022/04/25 03:25:24;;;;;;;14.40;10.55;;;13.80;74.10;;;;;;5078313;28;20020;-62
2022/04/25 03:27:50;;;;;;;12.45;9.88;;;13.80;74.50;;;;;;5077834;28;20048;-62
2022/04/25 03:30:17;;;;;;;15.45;10.10;;;13.70;74.80;;;;;;5078046;28;20060;-62
2022/04/25 03:32:47;;;;;;;12.75;10.25;;;13.70;74.20;;;;;;5078054;28;20020;-62
2022/04/25 03:35:17;;;;;;;13.15;10.45;;;13.60;75.20;;;;;;5078015;28;20023;-62
2022/04/25 03:37:44;;;;;;;13.20;10.43;;;13.60;75.40;;;;;;5077745;28;20035;-62
2022/04/25 03:40:11;;;;;;;13.18;9.93;;;13.50;75.00;;;;;;5077758;28;20535;-62
2022/04/25 03:42:37;;;;;;;15.18;11.80;;;13.50;75.60;;;;;;5077982;28;20036;-62
2022/04/25 03:45:09;;;;;;;12.95;10.80;;;13.50;74.50;;;;;;5077622;28;20463;-62
2022/04/25 03:47:36;;;;;;;15.80;11.45;;;13.40;75.30;;;;;;5077421;28;20044;-62
2022/04/25 03:50:02;;;;;;;13.18;10.00;;;13.40;75.50;;;;;;5077592;28;20417;-62
2022/04/25 03:52:29;;;;;;;14.10;10.52;;;13.40;76.30;;;;;;5077513;28;20482;-62
2022/04/25 03:57:39;;;;;;;14.98;11.13;;;13.40;76.30;;;;;;5077520;28;20086;-62
2022/04/25 04:00:10;;;;;;;13.98;9.93;;;13.40;74.60;;;;;;5077722;28;20039;-62
2022/04/25 04:02:37;;;;;;;14.02;10.73;;;13.40;76.00;;;;;;5077209;28;20515;-62
2022/04/25 04:05:03;;;;;;;13.20;10.00;;;13.40;75.50;;;;;;5077650;28;20028;-62
2022/04/25 04:07:29;;;;;;;16.77;11.52;;;13.40;76.10;;;;;;5077587;28;20507;-62
2022/04/25 04:09:55;;;;;;;14.93;11.48;;;13.40;76.80;;;;;;5077548;28;20020;-62
2022/04/25 04:12:24;;;;;;;19.10;12.90;;;13.30;76.70;;;;;;5077376;28;20369;-62
2022/04/25 04:14:50;;;;;;;15.55;11.95;;;13.30;75.00;;;;;;5077530;28;20032;-62
2022/04/25 04:17:17;;;;;;;16.33;13.77;;;13.20;76.90;;;;;;5077539;28;20028;-62
2022/04/25 04:19:44;;;;;;;18.52;13.35;;;13.20;75.10;;;;;;5077507;28;20046;-62
2022/04/25 04:22:10;;;;;;;21.02;12.85;;;13.20;76.10;;;;;;5077604;28;20457;-62
2022/04/25 04:24:36;;;;;;;17.20;13.93;;;13.20;76.80;;;;;;5077096;28;20066;-62
2022/04/25 04:27:03;;;;;;;18.75;13.98;;;13.10;76.40;;;;;;5077056;28;20112;-62
2022/04/25 04:29:33;;;;;;;19.20;14.68;;;13.10;74.70;;;;;;5077164;28;20082;-62
2022/04/25 04:32:01;;;;;;;16.58;13.70;;;13.10;75.90;;;;;;5077164;28;20054;-62
2022/04/25 04:34:28;;;;;;;17.10;12.95;;;13.00;76.10;;;;;;5077109;28;20025;-62
2022/04/25 04:36:54;;;;;;;19.60;13.73;;;13.00;76.60;;;;;;5077166;28;20029;-62
2022/04/25 04:39:20;;;;;;;17.67;13.13;;;13.00;76.20;;;;;;5077226;28;20377;-62
2022/04/25 04:41:46;;;;;;;14.85;12.25;;;12.90;76.10;;;;;;5077129;28;20028;-62
2022/04/25 04:44:13;;;;;;;17.25;13.10;;;13.00;75.90;;;;;;5077239;28;20028;-62
2022/04/25 04:46:38;;;;;;;18.63;14.20;;;12.90;75.00;;;;;;5077034;28;20380;-62
2022/04/25 04:49:04;;;;;;;16.27;12.60;;;12.90;75.50;;;;;;5076927;28;20082;-62
2022/04/25 04:51:30;;;;;;;16.70;12.85;;;12.90;76.60;;;;;;5077111;28;20478;-62
2022/04/25 04:53:59;;;;;;;17.58;13.60;;;12.90;76.50;;;;;;5076936;28;20024;-62
2022/04/25 04:56:32;;;;;;;16.85;12.55;;;12.90;76.50;;;;;;5076998;28;20032;-62
2022/04/25 04:59:02;;;;;;;17.77;13.38;;;12.90;76.40;;;;;;5078364;28;20028;-62
2022/04/25 05:01:28;;;;;;;18.20;13.95;;;12.80;76.20;;;;;;5080295;28;20021;-62
2022/04/25 05:03:58;;;;;;;17.67;13.25;;;12.80;75.80;;;;;;5080546;28;20076;-62
2022/04/25 05:06:27;;;;;;;16.65;13.00;;;12.80;76.90;;;;;;5080688;28;20036;-62
2022/04/25 05:08:54;;;;;;;20.30;14.60;;;12.90;76.00;;;;;;5080753;28;20016;-62
2022/04/25 05:11:21;;;;;;;20.42;15.77;;;12.80;76.50;;;;;;5080570;28;20024;-62
2022/04/25 05:13:47;;;;;;;19.08;13.93;;;12.80;76.10;;;;;;5080425;28;20020;-62
2022/04/25 05:16:13;;;;;;;19.02;14.13;;;12.80;77.20;;;;;;5080637;28;20381;-62
2022/04/25 05:18:39;;;;;;;17.02;13.82;;;12.80;76.70;;;;;;5080794;28;20070;-62
2022/04/25 05:21:05;;;;;;;20.40;14.63;;;12.80;77.60;;;;;;5080529;28;20035;-62
2022/04/25 05:23:31;;;;;;;19.08;13.38;;;12.80;77.40;;;;;;5080236;28;20029;-62
2022/04/25 05:25:58;;;;;;;16.27;13.68;;;12.80;77.60;;;;;;5080439;28;20029;-62
2022/04/25 05:28:28;;;;;;;20.38;14.50;;;12.90;77.80;;;;;;5080073;28;20056;-62
2022/04/25 05:30:54;;;;;;;18.17;14.07;;;12.90;78.80;;;;;;5078890;28;20025;-62
2022/04/25 05:33:20;;;;;;;19.95;14.82;;;12.80;78.10;;;;;;5080350;28;20495;-62
2022/04/25 05:35:46;;;;;;;18.63;13.73;;;12.90;77.90;;;;;;5080095;28;20036;-62
2022/04/25 05:38:12;;;;;;;18.17;13.60;;;12.90;77.30;;;;;;5080096;28;20021;-62
2022/04/25 05:40:41;;;;;;;18.35;14.32;;;12.90;77.70;;;;;;5080193;28;20092;-62
2022/04/25 05:43:08;;;;;;;20.10;14.45;;;12.90;76.40;;;;;;5080003;28;20021;-62
2022/04/25 05:45:34;;;;;;;20.02;14.68;;;12.90;76.50;;;;;;5080123;28;20016;-62
2022/04/25 05:48:01;;;;;;;19.08;14.50;;;12.90;77.10;;;;;;5080093;28;20474;-62
2022/04/25 05:53:13;;;;;;;18.42;14.05;;;12.90;77.20;;;;;;5078680;28;20043;-62
2022/04/25 05:55:39;;;;;;;21.00;15.18;;;12.90;76.90;;;;;;5079550;28;20028;-62
2022/04/25 05:58:08;;;;;;;16.77;13.48;;;12.90;76.60;;;;;;5079658;28;20016;-62
2022/04/25 06:00:34;;;;;;;17.15;13.50;;;12.90;77.10;;;;;;5079529;28;20154;-62
2022/04/25 06:03:02;;;;;;;17.63;12.85;;;12.90;78.10;;;;;;5079479;28;20035;-62
2022/04/25 06:05:28;;;;;;;17.58;14.25;;;13.00;78.00;;;;;;5079488;28;20048;-62
2022/04/25 06:07:56;;;;;;;17.88;13.90;;;13.00;78.00;;;;;;5079598;28;20017;-62
2022/04/25 06:10:23;;;;;;;18.58;12.73;;;13.00;77.60;;;;;;5079463;28;20036;-62
2022/04/25 06:12:52;;;;;;;19.77;14.48;;;13.00;78.30;;;;;;5079515;28;20108;-62
2022/04/25 06:15:24;;;;;;;17.80;13.23;;;13.10;77.20;;;;;;5079202;28;20090;-62
2022/04/25 06:17:51;;;;;;;17.38;14.20;;;13.10;78.30;;;;;;5079342;28;20032;-62
2022/04/25 06:20:18;;;;;;;16.88;13.32;;;13.10;76.30;;;;;;5079036;28;20041;-62
2022/04/25 06:22:55;;;;;;;17.70;14.13;;;13.10;77.30;;;;;;5078798;28;20503;-62
2022/04/25 06:25:21;;;;;;;17.33;12.90;;;13.10;77.20;;;;;;5079258;28;20024;-62
2022/04/25 06:27:46;;;;;;;18.40;14.15;;;13.10;78.00;;;;;;5079372;28;20472;-62
2022/04/25 06:30:12;;;;;;;19.38;15.20;;;13.10;76.60;;;;;;5079050;28;20392;-62
2022/04/25 06:32:38;;;;;;;17.30;13.48;;;13.10;76.40;;;;;;5079186;28;20025;-62
2022/04/25 06:35:05;;;;;;;15.18;12.50;;;13.10;77.80;;;;;;5078802;28;20038;-62
2022/04/25 06:37:31;;;;;;;17.98;13.98;;;13.10;77.70;;;;;;5078915;28;20032;-62
2022/04/25 06:39:56;;;;;;;18.48;13.52;;;13.20;77.60;;;;;;5078691;28;20031;-62
2022/04/25 06:42:25;;;;;;;17.63;13.23;;;13.20;77.00;;;;;;5078466;28;20051;-62
2022/04/25 06:44:50;;;;;;;17.00;14.18;;;13.20;77.70;;;;;;5078791;28;20024;-62
2022/04/25 06:47:16;;;;;;;17.75;13.50;;;13.30;76.80;;;;;;5078817;28;20024;-62
2022/04/25 06:49:42;;;;;;;19.70;14.52;;;13.30;77.60;;;;;;5078765;28;20037;-62
2022/04/25 06:52:09;;;;;;;19.80;14.73;;;13.40;76.30;;;;;;5078919;28;20107;-62
2022/04/25 06:54:35;;;;;;;18.58;13.65;;;13.40;77.40;;;;;;5078452;28;20029;-62
2022/04/25 06:57:02;;;;;;;17.58;13.38;;;13.30;76.90;;;;;;5078527;28;20029;-62
2022/04/25 06:59:28;;;;;;;18.77;14.88;;;13.30;76.30;;;;;;5078502;28;20029;-62
2022/04/25 07:01:54;;;;;;;16.67;13.15;;;13.40;76.30;;;;;;5078224;28;20032;-62
2022/04/25 07:04:20;;;;;;;18.25;14.55;;;13.40;77.10;;;;;;5078360;28;20063;-62
2022/04/25 07:06:47;;;;;;;19.92;15.05;;;13.40;76.70;;;;;;5078396;28;20040;-62
2022/04/25 07:09:13;;;;;;;17.95;12.98;;;13.50;75.90;;;;;;5078265;28;20020;-62
2022/04/25 07:11:48;;;;;;;19.95;14.27;;;13.50;77.20;;;;;;5078057;28;20505;-62
2022/04/25 07:14:16;;;;;;;18.25;13.07;;;13.50;76.20;;;;;;5078223;28;20023;-62
2022/04/25 07:16:44;;;;;;;20.00;14.73;;;13.60;77.20;;;;;;5077993;28;20039;-62
2022/04/25 07:19:11;;;;;;;22.20;15.02;;;13.60;76.20;;;;;;5078091;28;20034;-62
2022/04/25 07:29:51;;;;;;;16.00;13.35;;;13.80;77.10;;;;;;5077905;28;20499;-62
2022/04/25 07:32:17;;;;;;;17.73;13.55;;;13.90;76.70;;;;;;5077712;28;20032;-62
2022/04/25 07:34:43;;;;;;;19.20;13.80;;;14.00;77.00;;;;;;5076228;28;20032;-62
2022/04/25 07:37:10;;;;;;;16.08;12.68;;;14.00;76.90;;;;;;5077831;28;20028;-62
2022/04/25 07:39:35;;;;;;;19.38;13.88;;;14.00;76.50;;;;;;5077847;28;20032;-62
2022/04/25 07:42:01;;;;;;;18.08;13.25;;;14.10;75.80;;;;;;5077426;28;20032;-62
2022/04/25 07:44:27;;;;;;;18.42;13.25;;;14.10;76.60;;;;;;5077675;28;20459;-62
2022/04/25 07:46:53;;;;;;;16.58;12.85;;;14.20;76.80;;;;;;5077729;28;20021;-62
2022/04/25 07:49:19;;;;;;;19.23;13.00;;;14.20;76.60;;;;;;5077495;28;20029;-62
2022/04/25 07:51:47;;;;;;;15.23;12.55;;;14.30;75.20;;;;;;5077612;28;20066;-62
2022/04/25 07:54:14;;;;;;;18.90;12.75;;;14.30;75.80;;;;;;5077601;28;20024;-62
2022/04/25 07:56:42;;;;;;;17.67;11.23;;;14.30;75.80;;;;;;5077575;28;20021;-62
2022/04/25 07:59:09;;;;;;;17.58;11.48;;;14.30;75.60;;;;;;5077304;28;20037;-62
2022/04/25 08:01:35;;;;;;;20.05;13.13;;;14.30;75.30;;;;;;5077146;28;20377;-63
2022/04/25 08:04:01;;;;;;;17.48;11.43;;;14.30;74.90;;;;;;5077160;28;20514;-63
2022/04/25 08:06:27;;;;;;;18.50;12.70;;;14.30;74.50;;;;;;5077077;28;20066;-63
2022/04/25 08:08:54;;;;;;;15.40;10.88;;;14.30;75.20;;;;;;5077225;28;20100;-63
2022/04/25 08:11:21;;;;;;;19.30;12.15;;;14.30;75.40;;;;;;5077203;28;20147;-63
2022/04/25 08:19:18;;;;;;;17.88;12.23;;;14.50;74.70;;;;;;5077164;28;20519;-63
2022/04/25 08:21:45;;;;;;;19.63;12.63;;;14.50;74.60;;;;;;5077236;28;20025;-63
2022/04/25 08:24:12;;;;;;;16.45;11.55;;;14.50;74.30;;;;;;5077097;28;20027;-63
2022/04/25 08:26:38;;;;;;;16.40;12.23;;;14.50;74.90;;;;;;5077086;28;20013;-63
2022/04/25 08:29:04;;;;;;;15.07;12.18;;;14.60;74.60;;;;;;5076517;28;20036;-63
2022/04/25 08:31:31;;;;;;;16.27;11.23;;;14.60;74.70;;;;;;5077015;28;20025;-63
2022/04/25 08:33:57;;;;;;;16.35;11.02;;;14.70;74.10;;;;;;5078391;28;20048;-63
2022/04/25 08:36:23;;;;;;;17.58;11.40;;;14.70;73.60;;;;;;5081241;28;20078;-63
2022/04/25 08:38:49;;;;;;;16.00;11.73;;;14.70;74.10;;;;;;5081430;28;20028;-63
2022/04/25 08:41:21;;;;;;;14.57;11.13;;;14.80;74.90;;;;;;5081428;28;20024;-63
2022/04/25 08:43:52;;;;;;;16.92;11.23;;;14.80;74.50;;;;;;5080682;28;20484;-63
2022/04/25 08:46:21;;;;;;;16.33;10.75;;;14.90;72.90;;;;;;5081094;28;20025;-63
2022/04/25 08:48:47;;;;;;;16.10;11.75;;;14.90;74.10;;;;;;5080720;28;20052;-63
2022/04/25 08:51:15;;;;;;;17.02;11.68;;;15.00;72.20;;;;;;5080833;28;20017;-63
2022/04/25 08:53:44;;;;;;;15.20;10.55;;;14.90;72.80;;;;;;5080729;28;20021;-63
2022/04/25 08:56:12;;;;;;;17.02;10.77;;;14.90;73.10;;;;;;5080679;28;20412;-63
2022/04/25 08:58:40;;;;;;;13.32;10.60;;;15.00;72.10;;;;;;5080913;28;20027;-63
2022/04/25 09:01:09;;;;;;;16.52;10.73;;;15.10;72.60;;;;;;5080502;28;20033;-64
2022/04/25 09:03:35;;;;;;;14.95;10.18;;;15.10;72.60;;;;;;5080251;28;20033;-63
2022/04/25 09:06:01;;;;;;;15.68;10.27;;;15.20;72.00;;;;;;5080667;28;20029;-63
2022/04/25 09:08:27;;;;;;;16.00;10.82;;;15.20;71.60;;;;;;5080266;28;20480;-63
2022/04/25 09:12:09;;;;;;;14.93;10.27;;;15.30;71.60;;;;;;5080379;28;20131;-63
2022/04/25 09:13:47;;;;;;;15.73;10.77;;;15.40;71.30;;;;;;5080224;28;20053;-63
2022/04/25 09:16:16;;;;;;;15.77;11.13;;;15.50;70.20;;;;;;5080335;28;20033;-63
2022/04/25 09:18:43;;;;;;;15.73;11.35;;;15.60;70.60;;;;;;5080379;28;20024;-63
2022/04/25 09:21:13;;;;;;;15.20;10.45;;;15.60;69.10;;;;;;5080219;28;20505;-63
2022/04/25 09:23:39;;;;;;;15.95;11.15;;;15.60;71.10;;;;;;5080496;28;20028;-63
2022/04/25 09:26:15;;;;;;;16.67;10.43;;;15.70;71.10;;;;;;5080087;28;20044;-63
2022/04/25 09:28:54;;;;;;;14.35;10.65;;;15.80;70.90;;;;;;5079918;28;20040;-63
2022/04/25 09:31:22;;;;;;;15.10;10.73;;;15.90;71.70;;;;;;5079825;28;20032;-63
2022/04/25 09:33:49;;;;;;;17.98;11.68;;;16.10;70.80;;;;;;5080076;28;20028;-63
2022/04/25 09:36:15;;;;;;;15.25;11.13;;;16.20;70.20;;;;;;5079930;28;20032;-64
2022/04/25 09:38:42;;;;;;;17.23;10.80;;;16.30;70.50;;;;;;5078477;28;20021;-64
2022/04/25 09:41:10;;;;;;;15.73;10.98;;;16.40;70.80;;;;;;5080020;28;20037;-64
2022/04/25 09:43:38;;;;;;;17.30;11.63;;;16.60;70.30;;;;;;5079739;28;20027;-63
2022/04/25 09:46:10;;;;;;;14.15;11.23;;;16.70;68.50;;;;;;5079253;28;20111;-64
2022/04/25 09:48:37;;;;;;;14.60;10.95;;;16.90;69.10;;;;;;5080039;28;20019;-63
2022/04/25 09:51:08;;;;;;;18.05;11.75;;;17.00;68.80;;;;;;5079927;28;20028;-63
2022/04/25 09:53:55;;;;;;;18.30;12.32;;;17.00;68.10;;;;;;5079642;28;20021;-63
2022/04/25 09:56:30;;;;;;;16.10;11.60;;;17.10;67.70;;;;;;5079411;28;20044;-63
2022/04/25 09:59:05;;;;;;;17.58;12.48;;;17.30;68.00;;;;;;5079602;28;20041;-63
2022/04/25 10:01:35;;;;;;;17.23;11.93;;;17.50;64.00;;;;;;5079498;28;20028;-63
2022/04/25 10:04:05;;;;;;;15.88;11.57;;;17.70;66.40;;;;;;5079741;28;20035;-63
2022/04/25 10:06:33;;;;;;;17.33;11.57;;;17.90;67.00;;;;;;5079329;28;20021;-63
2022/04/25 10:09:02;;;;;;;17.15;11.90;;;18.20;66.90;;;;;;5079557;28;20388;-63
2022/04/25 10:11:35;;;;;;;17.52;12.50;;;18.60;68.00;;;;;;5079745;28;20020;-62
2022/04/25 10:14:01;;;;;;;16.95;11.93;;;19.00;66.70;;;;;;5079114;28;20025;-62
2022/04/25 10:16:29;;;;;;;15.65;11.25;;;19.30;63.60;;;;;;5079642;28;20021;-62
2022/04/25 10:18:55;;;;;;;16.23;11.95;;;19.60;63.20;;;;;;5079325;28;20060;-61
2022/04/25 10:21:25;;;;;;;15.30;11.77;;;20.20;66.70;;;;;;5079152;28;20016;-61
2022/04/25 10:23:52;;;;;;;16.70;11.63;;;20.80;60.90;;;;;;5078977;28;20068;-61
2022/04/25 10:26:18;;;;;;;14.35;10.93;;;21.30;61.10;;;;;;5078950;28;20362;-62
2022/04/25 10:28:50;;;;;;;15.00;11.30;;;21.60;61.00;;;;;;5078999;28;20040;-61
2022/04/25 10:31:41;;;;;;;14.05;10.45;;;22.00;63.00;;;;;;5079025;28;20024;-62
2022/04/25 10:34:08;;;;;;;12.15;9.27;;;22.20;63.10;;;;;;5078848;28;20028;-62
2022/04/25 10:36:37;;;;;;;12.82;9.70;;;22.20;57.90;;;;;;5079067;28;20028;-62
2022/04/25 10:39:24;;;;;;;12.93;10.10;;;22.10;58.20;;;;;;5078937;28;20047;-62
2022/04/25 10:44:37;;;;;;;11.93;8.90;;;21.90;50.60;;;;;;5078879;28;20028;-62
2022/04/25 10:47:06;;;;;;;12.45;9.10;;;21.90;56.50;;;;;;5078600;28;20025;-62
2022/04/25 10:49:34;;;;;;;14.35;9.23;;;21.90;52.30;;;;;;5078713;28;20017;-62
2022/04/25 10:52:00;;;;;;;13.10;8.75;;;22.20;55.50;;;;;;5078599;28;20445;-62
2022/04/25 10:54:29;;;;;;;14.88;9.88;;;22.40;51.60;;;;;;5078540;28;20028;-62
2022/04/25 10:57:07;;;;;;;12.90;9.68;;;22.70;52.60;;;;;;5077891;28;20016;-62
2022/04/25 10:59:33;;;;;;;15.07;10.07;;;23.00;54.70;;;;;;5078342;28;20070;-62
2022/04/25 11:01:58;;;;;;;11.63;8.70;;;23.10;49.60;;;;;;5078391;28;20024;-62
2022/04/25 11:04:25;;;;;;;13.52;9.85;;;23.50;55.80;;;;;;5078430;28;20031;-62
2022/04/25 11:07:20;;;;;;;11.88;9.18;;;23.70;54.80;;;;;;5078486;28;20031;-61
2022/04/25 11:09:46;;;;;;;13.52;9.57;;;23.90;50.50;;;;;;5078375;28;20027;-61
2022/04/25 11:12:12;;;;;;;12.68;10.48;;;24.20;49.00;;;;;;5078330;28;20084;-61
2022/04/25 11:14:54;;;;;;;13.05;9.82;;;24.20;50.20;;;;;;5078300;28;20021;-61
2022/04/25 11:17:20;;;;;;;15.50;9.80;;;24.00;50.00;;;;;;5078047;28;20044;-61
2022/04/25 11:19:54;;;;;;;13.95;10.57;;;24.00;51.90;;;;;;5078306;28;20388;-61
2022/04/25 11:22:44;;;;;;;13.82;9.57;;;23.70;50.40;;;;;;5077797;28;20107;-61
2022/04/25 11:25:25;;;;;;;15.70;11.70;;;24.10;51.80;;;;;;5072584;28;20035;-61
2022/04/25 11:28:04;;;;;;;14.48;10.43;;;24.40;43.30;;;;;;5077941;28;20052;-61
2022/04/25 11:30:31;;;;;;;15.68;10.50;;;24.40;47.80;;;;;;5077592;28;20028;-62
2022/04/25 11:33:08;;;;;;;14.23;11.27;;;24.20;47.00;;;;;;5077699;28;20033;-62
2022/04/25 11:35:33;;;;;;;14.52;10.68;;;24.30;44.20;;;;;;5077819;28;20150;-62
2022/04/25 11:37:59;;;;;;;14.68;10.63;;;24.20;47.60;;;;;;5077658;28;20039;-62
2022/04/25 11:40:28;;;;;;;15.85;11.05;;;24.20;46.10;;;;;;5077507;28;20095;-62
2022/04/25 11:42:54;;;;;;;13.98;10.57;;;24.60;46.60;;;;;;5077515;28;20027;-61
2022/04/25 11:45:21;;;;;;;14.85;10.80;;;24.70;42.90;;;;;;5077498;28;20020;-62
2022/04/25 11:47:46;;;;;;;13.98;10.48;;;24.90;46.10;;;;;;5077746;28;20087;-62
2022/04/25 11:50:12;;;;;;;15.27;11.38;;;25.00;43.90;;;;;;5078029;28;20468;-62
2022/04/25 11:52:46;;;;;;;17.08;11.40;;;25.30;42.30;;;;;;5077555;28;20024;-62
2022/04/25 11:55:12;;;;;;;16.67;11.68;;;25.50;45.40;;;;;;5077491;28;20025;-61
2022/04/25 11:57:39;;;;;;;16.55;11.48;;;25.60;40.80;;;;;;5077450;28;20035;-62
2022/04/25 12:00:14;;;;;;;17.20;11.48;;;25.50;40.90;;;;;;5077302;28;20028;-62
2022/04/25 12:02:40;;;;;;;15.00;10.75;;;25.00;43.40;;;;;;5076516;28;20028;-62
2022/04/25 12:05:07;;;;;;;14.05;11.25;;;25.00;41.70;;;;;;5076213;28;20028;-62
2022/04/25 12:07:35;;;;;;;15.90;11.63;;;25.00;41.90;;;;;;5077290;28;20077;-62
2022/04/25 12:15:45;;;;;;;16.65;12.95;;;25.10;43.00;;;;;;5076165;28;20044;-62
2022/04/25 12:18:15;;;;;;;15.45;12.02;;;25.50;39.70;;;;;;5077807;28;20413;-62
2022/04/25 12:20:43;;;;;;;16.30;13.57;;;26.10;43.60;;;;;;5076617;28;20036;-61
2022/04/25 12:23:11;;;;;;;16.77;12.75;;;26.30;41.20;;;;;;5077328;28;20020;-62
2022/04/25 12:25:44;;;;;;;16.98;14.05;;;26.10;39.60;;;;;;5077810;28;20052;-61
2022/04/25 12:28:13;;;;;;;18.13;14.65;;;25.80;40.60;;;;;;5077358;28;20049;-61
2022/04/25 12:30:54;;;;;;;17.95;14.00;;;25.40;40.20;;;;;;5078052;28;20457;-61
2022/04/25 12:33:41;;;;;;;18.50;13.20;;;25.30;38.20;;;;;;5077913;28;20025;-61
2022/04/25 12:36:19;;;;;;;16.35;12.85;;;25.50;39.00;;;;;;5078035;28;20414;-61
2022/04/25 12:38:52;;;;;;;16.33;13.32;;;26.10;42.50;;;;;;5077359;28;20058;-62
2022/04/25 12:41:36;;;;;;;17.03;12.80;;;26.40;40.90;;;;;;5077849;28;20028;-61
2022/04/25 12:44:10;;;;;;;18.00;13.77;;;26.30;36.60;;;;;;5077223;28;20067;-62
2022/04/25 12:46:47;;;;;;;17.00;13.82;;;26.00;36.50;;;;;;5077175;28;20082;-61
2022/04/25 12:49:18;;;;;;;17.83;13.43;;;25.40;37.90;;;;;;5077272;28;20444;-61
2022/04/25 12:51:57;;;;;;;17.88;12.38;;;24.90;38.00;;;;;;5077561;28;20020;-61
2022/04/25 12:54:24;;;;;;;19.42;13.20;;;25.00;40.30;;;;;;5077632;28;20016;-61
2022/04/25 12:57:12;;;;;;;16.42;12.65;;;25.10;39.50;;;;;;5077450;28;20084;-61
2022/04/25 12:59:39;;;;;;;15.75;12.73;;;25.30;39.10;;;;;;5077308;28;20028;-61
2022/04/25 13:02:12;;;;;;;15.88;12.27;;;25.60;37.40;;;;;;5077070;28;20400;-61
2022/04/25 13:04:57;;;;;;;16.77;12.93;;;25.10;38.10;;;;;;5076894;28;20017;-63
2022/04/25 13:07:37;;;;;;;20.33;13.57;;;24.70;39.80;;;;;;5077563;28;20048;-63